Thursday, January 17, 2019, 6:43 AM EST
Back to Local

KWRI, Mcguire Air Force Base

Location: Trenton, NJ, United States Lat: 40.017
Local Time: 6:43 AM EST (11:43 GMT) Lon: -74.6
Time Zone: US/Eastern Elev: 134 ft

Show me the last for .
Show Coded

Time T Td Feel RH Dir Speed Gust Alt SLP Vis Weather Sky Remarks
2019-01-17 05:56 26 14 17 59 10° 9 - 30.32 30.32 10 CLR None
2019-01-17 04:56 27 16 18 61 20° 9 - 30.30 30.30 10 CLR None
2019-01-17 03:56 29 17 20 59 30° 10 - 30.28 30.28 10 CLR None
2019-01-17 02:56 29 16 24 57 340° 5 - 30.28 30.28 10 CLR None
2019-01-17 01:56 30 16 24 55 330° 6 - 30.26 30.26 10 CLR None
2019-01-17 00:56 32 22 27 67 290° 5 - 30.23 30.23 10 CLR 6-hr Min Temp (1am): 31.8°F
6-hr Max Temp (1am): 36.1°F
2019-01-16 23:56 35 23 31 60 280° 5 - 30.22 30.22 10 OVC048 24-hr Min Temp (12am): 20.1°F
24-hr Max Temp (12am): 37.6°F
2019-01-16 22:56 35 22 29 60 280° 6 - 30.20 30.20 10 OVC048 None
2019-01-16 21:56 35 22 29 60 280° 6 - 30.18 30.18 10 OVC055 None
2019-01-16 20:56 35 22 30 59 280° 6 - 30.16 30.16 10 FEW055 None
2019-01-16 19:56 35 21 30 57 260° 6 - 30.15 30.15 10 SCT055 None
2019-01-16 18:56 36 22 27 57 290° 9 16 30.14 30.14 10 SCT043 6-hr Min Temp (7pm): 36.1°F
6-hr Max Temp (7pm): 37.6°F
2019-01-16 17:56 37 24 31 59 290° 9 - 30.12 30.12 10 OVC043 None
2019-01-16 16:56 37 25 32 59 280° 7 - 30.09 30.09 10 OVC042 None
2019-01-16 15:56 38 25 30 59 290° 12 - 30.07 30.07 10 OVC039 None
2019-01-16 14:56 37 25 30 60 290° 12 - 30.05 30.05 10 OVC035 None
2019-01-16 13:56 37 25 29 60 290° 13 - 30.05 30.05 10 OVC034 None
2019-01-16 12:56 36 25 28 63 270° 12 - 30.05 30.05 10 OVC032 6-hr Min Temp (1pm): 20.8°F
6-hr Max Temp (1pm): 36.5°F
2019-01-16 11:56 35 25 27 66 270° 12 - 30.08 30.08 10 OVC030 None
2019-01-16 11:41 34 25 27 69 280° 8 - 30.09 30.09 10 OVC030 None
2019-01-16 10:56 33 26 26 75 270° 7 - 30.10 30.10 10 OVC029 None
2019-01-16 10:16 32 25 25 74 260° 8 - 30.10 30.10 10 OVC029 None
2019-01-16 09:56 30 25 23 80 260° 8 - 30.09 30.09 10 OVC030 None
2019-01-16 08:56 29 24 20 81 250° 9 - 30.07 30.07 10 OVC031 None
2019-01-16 08:06 27 23 18 86 250° 8 - 30.06 30.06 10 OVC030 None
2019-01-16 07:56 26 22 18 85 240° 7 - 30.06 30.06 9 OVC029 None
2019-01-16 07:21 21 19 15 92 240° 5 - 30.06 30.06 8 BKN029 None
2019-01-16 06:56 21 18 16 89 220° 3 - 30.06 30.06 10 CLR 6-hr Min Temp (7am): 20.3°F
6-hr Max Temp (7am): 22.8°F

Support USWX by starting your Amazon purchase here.